createdAt,value
2023-01-22T00:04:28.780Z,10.35
2023-01-22T00:09:32.846Z,10.52
2023-01-22T00:14:38.286Z,11.48
2023-01-22T00:19:42.633Z,11.68
2023-01-22T00:24:46.419Z,11.20
2023-01-22T00:29:51.415Z,10.27
2023-01-22T00:34:55.101Z,11.07
2023-01-22T00:40:00.049Z,11.25
2023-01-22T00:45:05.682Z,11.02
2023-01-22T00:50:10.763Z,10.20
2023-01-22T00:55:14.511Z,11.07
2023-01-22T01:00:20.603Z,11.05
2023-01-22T01:05:25.895Z,11.43
2023-01-22T01:10:29.760Z,10.70
2023-01-22T01:15:35.429Z,9.63
2023-01-22T01:20:39.179Z,10.73
2023-01-22T01:25:43.393Z,10.10
2023-01-22T01:30:48.752Z,10.13
2023-01-22T01:36:00.305Z,10.25
2023-01-22T01:41:06.533Z,10.80
2023-01-22T01:46:19.498Z,10.85
2023-01-22T01:51:29.319Z,10.45
2023-01-22T01:56:37.509Z,8.98
2023-01-22T02:01:43.172Z,9.13
2023-01-22T02:06:46.968Z,10.98
2023-01-22T02:11:52.605Z,10.82
2023-01-22T02:17:08.062Z,9.98
2023-01-22T02:22:15.208Z,9.93
2023-01-22T02:27:18.873Z,9.63
2023-01-22T02:32:24.614Z,9.80
2023-01-22T02:37:31.952Z,8.73
2023-01-22T02:42:36.010Z,9.18
2023-01-22T02:47:39.857Z,9.55
2023-01-22T02:52:44.951Z,9.18
2023-01-22T02:57:49.522Z,9.20
2023-01-22T03:02:53.663Z,8.35
2023-01-22T03:07:58.782Z,8.88
2023-01-22T03:13:19.965Z,9.18
2023-01-22T03:18:41.843Z,8.48
2023-01-22T03:23:48.739Z,8.57
2023-01-22T03:28:54.432Z,8.70
2023-01-22T03:33:59.466Z,8.63
2023-01-22T03:39:04.819Z,8.02
2023-01-22T03:44:11.761Z,7.68
2023-01-22T03:49:16.179Z,7.22
2023-01-22T03:54:21.798Z,7.65
2023-01-22T03:59:25.765Z,7.85
2023-01-22T04:04:30.925Z,6.72
2023-01-22T04:09:36.218Z,7.28
2023-01-22T04:14:40.089Z,6.85
2023-01-22T04:19:44.827Z,6.43
2023-01-22T04:25:03.396Z,7.57
2023-01-22T04:30:09.402Z,7.40
2023-01-22T04:35:13.275Z,6.72
2023-01-22T04:40:27.053Z,6.63
2023-01-22T04:45:32.003Z,7.93
2023-01-22T04:50:36.735Z,7.35
2023-01-22T04:55:42.337Z,7.78
2023-01-22T05:05:51.380Z,7.03
2023-01-22T05:11:00.909Z,7.15
2023-01-22T05:16:09.114Z,7.43
2023-01-22T05:21:13.003Z,7.70
2023-01-22T05:26:18.579Z,6.63
2023-01-22T05:31:32.183Z,6.28
2023-01-22T05:36:38.368Z,7.40
2023-01-22T05:41:50.831Z,7.00
2023-01-22T05:46:55.009Z,7.05
2023-01-22T05:52:01.287Z,7.07
2023-01-22T05:57:06.959Z,7.63
2023-01-22T06:07:20.361Z,6.95
2023-01-22T06:12:25.968Z,6.13
2023-01-22T06:17:29.791Z,6.43
2023-01-22T06:22:38.305Z,6.90
2023-01-22T06:27:44.102Z,6.45
2023-01-22T06:32:47.785Z,6.05
2023-01-22T06:37:51.869Z,6.97
2023-01-22T06:42:57.752Z,6.72
2023-01-22T06:48:01.540Z,5.47
2023-01-22T06:53:05.388Z,6.10
2023-01-22T06:58:10.502Z,6.05
2023-01-22T07:03:16.506Z,6.25
2023-01-22T07:08:20.180Z,5.57
2023-01-22T07:13:25.245Z,6.50
2023-01-22T07:18:28.953Z,5.70
2023-01-22T07:23:33.281Z,5.90
2023-01-22T07:28:38.326Z,5.55
2023-01-22T07:33:42.637Z,6.93
2023-01-22T07:38:46.329Z,8.95
2023-01-22T07:43:53.127Z,6.13
2023-01-22T07:48:56.804Z,5.80
2023-01-22T07:54:00.551Z,5.78
2023-01-22T10:35:32.086Z,5.80
2023-01-22T10:40:47.157Z,5.70
2023-01-22T10:45:55.506Z,5.85
2023-01-22T10:51:15.723Z,5.70
2023-01-22T10:56:28.945Z,6.13
2023-01-22T11:01:45.199Z,5.78
2023-01-22T11:06:54.046Z,6.37
2023-01-22T11:12:13.676Z,5.38
2023-01-22T11:17:27.653Z,5.68
2023-01-22T11:22:40.839Z,4.97
2023-01-22T11:27:58.562Z,5.00
2023-01-22T11:33:16.703Z,5.20
2023-01-22T11:38:44.990Z,5.32
2023-01-22T11:44:18.885Z,5.40
2023-01-22T11:49:39.032Z,5.05
2023-01-22T11:55:15.734Z,4.50
2023-01-22T12:00:32.152Z,4.95
2023-01-22T12:05:58.664Z,5.18
2023-01-22T12:11:30.143Z,6.00
2023-01-22T12:16:55.676Z,6.15
2023-01-22T12:22:13.139Z,7.20
2023-01-22T12:27:51.752Z,5.90
2023-01-22T12:32:59.946Z,6.03
2023-01-22T12:38:21.462Z,5.90
2023-01-22T12:43:34.632Z,5.57
2023-01-22T12:48:49.975Z,6.07
2023-01-22T12:53:56.750Z,4.50
2023-01-22T12:59:06.188Z,5.63
2023-01-22T13:04:31.386Z,7.57
2023-01-22T13:09:41.536Z,5.50
2023-01-22T13:14:51.478Z,5.22
2023-01-22T13:19:55.916Z,4.88
2023-01-22T13:25:01.039Z,4.85
2023-01-22T13:30:16.811Z,4.72
2023-01-22T13:35:22.354Z,4.70
2023-01-22T13:40:50.545Z,4.53
2023-01-22T13:45:59.664Z,5.10
2023-01-22T13:51:09.036Z,4.82
2023-01-22T13:56:17.372Z,5.68
2023-01-22T14:01:42.239Z,4.97
2023-01-22T14:06:49.842Z,5.13
2023-01-22T14:11:53.919Z,4.45
2023-01-22T14:16:59.354Z,4.20
2023-01-22T14:22:04.901Z,4.72
2023-01-22T14:27:08.933Z,5.80
2023-01-22T14:32:21.811Z,5.90
2023-01-22T14:37:38.217Z,6.03
2023-01-22T14:42:47.267Z,5.35
2023-01-22T14:47:55.646Z,5.22
2023-01-22T14:53:01.554Z,5.50
2023-01-22T14:58:06.188Z,5.47
2023-01-22T15:03:12.896Z,5.57
2023-01-22T15:08:19.398Z,5.65
2023-01-22T15:13:23.313Z,5.85
2023-01-22T15:18:28.839Z,6.82
2023-01-22T15:23:33.316Z,7.53
2023-01-22T15:28:37.543Z,5.70
2023-01-22T15:33:42.984Z,7.60
2023-01-22T15:38:47.736Z,6.32
2023-01-22T15:43:56.316Z,6.13
2023-01-22T15:49:02.019Z,7.70
2023-01-22T15:54:08.041Z,5.93
2023-01-22T15:59:12.686Z,7.13
2023-01-22T16:04:17.940Z,6.70
2023-01-22T16:09:21.796Z,6.43
2023-01-22T16:14:25.987Z,6.78
2023-01-22T16:19:31.392Z,7.32
2023-01-22T16:24:35.680Z,6.85
2023-01-22T16:29:40.180Z,7.43
2023-01-22T16:34:45.433Z,7.93
2023-01-22T16:39:49.330Z,9.23
2023-01-22T16:44:53.572Z,9.13
2023-01-22T16:49:58.834Z,10.05
2023-01-22T16:55:08.177Z,11.95
2023-01-22T17:00:13.085Z,7.43
2023-01-22T17:05:18.453Z,7.78
2023-01-22T17:10:22.312Z,7.05
2023-01-22T17:15:26.353Z,7.35
2023-01-22T17:20:57.395Z,7.28
2023-01-22T17:26:09.966Z,8.07
2023-01-22T17:31:17.865Z,10.45
2023-01-22T17:36:25.777Z,6.68
2023-01-22T17:41:30.419Z,8.00
2023-01-22T17:46:35.933Z,7.90
2023-01-22T17:51:44.335Z,8.05
2023-01-22T17:56:51.074Z,7.93
2023-01-22T18:01:55.148Z,7.55
2023-01-22T18:07:05.083Z,8.88
2023-01-22T18:12:10.306Z,9.52
2023-01-22T18:17:14.160Z,10.20
2023-01-22T18:22:21.371Z,10.05
2023-01-22T18:27:25.530Z,9.38
2023-01-22T18:32:30.813Z,8.38
2023-01-22T18:37:38.094Z,9.27
2023-01-22T18:42:44.594Z,9.32
2023-01-22T18:47:51.931Z,9.27
2023-01-22T18:52:57.399Z,8.80
2023-01-22T18:58:06.254Z,8.25
2023-01-22T19:03:11.263Z,9.15
2023-01-22T19:08:16.796Z,8.10
2023-01-22T19:13:21.017Z,8.32
2023-01-22T19:18:25.028Z,8.85
2023-01-22T19:23:30.420Z,8.40
2023-01-22T19:28:34.528Z,9.05
2023-01-22T19:33:40.776Z,9.32
2023-01-22T19:38:46.402Z,8.30
2023-01-22T19:43:50.502Z,9.05
2023-01-22T19:48:55.322Z,9.13
2023-01-22T19:54:01.012Z,9.35
2023-01-22T19:59:07.112Z,8.80
2023-01-22T20:04:12.600Z,8.20
2023-01-22T20:09:19.740Z,9.07
2023-01-22T20:14:24.719Z,8.10
2023-01-22T20:19:29.285Z,9.00
2023-01-22T20:24:35.002Z,10.27
2023-01-22T20:29:40.999Z,9.68
2023-01-22T20:34:49.033Z,9.70
2023-01-22T20:39:56.222Z,9.95
2023-01-22T20:45:00.737Z,9.75
2023-01-22T20:50:05.671Z,9.70
2023-01-22T20:55:23.316Z,9.00
2023-01-22T21:00:27.740Z,9.85
2023-01-22T21:05:38.018Z,8.93
2023-01-22T21:11:03.293Z,9.40
2023-01-22T21:16:14.440Z,8.98
2023-01-22T21:21:20.980Z,9.13
2023-01-22T21:26:28.488Z,8.50
2023-01-22T21:31:32.963Z,8.73
2023-01-22T21:36:39.043Z,10.60
2023-01-22T21:41:45.021Z,9.23
2023-01-22T21:46:52.147Z,9.32
2023-01-22T21:51:58.986Z,9.00
2023-01-22T21:57:04.697Z,9.20
2023-01-22T22:02:10.207Z,9.45
2023-01-22T22:07:18.696Z,8.65
2023-01-22T22:12:29.767Z,9.20
2023-01-22T22:17:34.068Z,8.57
2023-01-22T22:22:38.026Z,9.52
2023-01-22T22:27:44.519Z,8.50
2023-01-22T22:32:48.441Z,8.90
2023-01-22T22:37:52.351Z,9.30
2023-01-22T22:42:57.708Z,9.98
2023-01-22T22:48:01.743Z,10.68
2023-01-22T22:53:05.625Z,9.68
2023-01-22T22:58:10.816Z,9.15
2023-01-22T23:03:21.067Z,13.00
2023-01-22T23:08:25.177Z,9.70
2023-01-22T23:13:30.710Z,9.40
2023-01-22T23:18:36.421Z,9.27
2023-01-22T23:23:43.212Z,9.35
2023-01-22T23:28:49.267Z,9.88
2023-01-22T23:33:54.469Z,10.02
2023-01-22T23:38:58.736Z,9.25
2023-01-22T23:44:06.739Z,8.85
2023-01-22T23:49:11.166Z,8.57
2023-01-22T23:54:15.403Z,8.95
2023-01-22T23:59:23.505Z,8.88
